Time;durP1;ratioP1;P1;durP2;ratioP2;P2;SDS_P1;SDS_P2;PMS_P1;PMS_P2;Temp;Humidity;BMP_temperature;BMP_pressure;BME280_temperature;BME280_humidity;BME280_pressure;Samples;Min_cycle;Max_cycle;Signal;HPM_P1;HPM_P2
2021/03/30 00:00:13;;;;;;;6.53;2.50;;;14.70;1.00;;;;;;5070170;28;20190;-59
2021/03/30 00:02:38;;;;;;;4.23;2.70;;;14.60;1.00;;;;;;5071617;28;20604;-61
2021/03/30 00:05:05;;;;;;;4.10;2.40;;;14.80;1.00;;;;;;5069798;28;20566;-59
2021/03/30 00:07:30;;;;;;;4.23;2.77;;;14.70;1.00;;;;;;5070203;28;20645;-60
2021/03/30 00:09:56;;;;;;;4.10;2.60;;;14.70;1.00;;;;;;5070848;28;20542;-60
2021/03/30 00:12:21;;;;;;;5.60;2.67;;;14.70;1.00;;;;;;5068313;28;20546;-60
2021/03/30 00:14:47;;;;;;;4.33;2.50;;;14.50;1.00;;;;;;5065272;28;20191;-61
2021/03/30 00:17:13;;;;;;;5.80;2.70;;;14.40;1.00;;;;;;5059541;28;20660;-59
2021/03/30 00:19:39;;;;;;;3.10;2.37;;;14.50;1.00;;;;;;5063581;28;20456;-61
2021/03/30 00:22:05;;;;;;;4.13;2.37;;;14.40;1.00;;;;;;5062983;28;20237;-59
2021/03/30 00:24:30;;;;;;;5.17;3.33;;;14.50;1.00;;;;;;5069429;28;20296;-61
2021/03/30 00:26:56;;;;;;;4.03;2.43;;;14.60;1.00;;;;;;5073694;28;20490;-59
2021/03/30 00:29:21;;;;;;;5.67;2.63;;;14.50;1.00;;;;;;5069011;28;20193;-61
2021/03/30 00:31:47;;;;;;;3.97;2.50;;;;;;;;;;5071627;28;20378;-59
2021/03/30 00:34:13;;;;;;;4.30;2.27;;;14.80;1.00;;;;;;5069806;28;20240;-61
2021/03/30 00:36:38;;;;;;;5.27;2.30;;;14.80;1.00;;;;;;5069940;28;20802;-60
2021/03/30 00:39:05;;;;;;;3.83;2.40;;;14.90;1.00;;;;;;5070106;28;20704;-60
2021/03/30 00:41:39;;;;;;;3.60;2.90;;;14.90;1.00;;;;;;5071058;28;20493;-59
2021/03/30 00:44:09;;;;;;;2.83;2.63;;;16.00;1.00;;;;;;5089493;28;20472;-61
2021/03/30 00:46:35;;;;;;;4.27;3.27;;;14.90;1.00;;;;;;5073593;28;20449;-60
2021/03/30 00:49:01;;;;;;;3.37;2.50;;;14.90;1.00;;;;;;5072104;28;20490;-60
2021/03/30 00:51:26;;;;;;;2.93;2.63;;;14.90;1.00;;;;;;5082106;28;20260;-60
2021/03/30 00:53:52;;;;;;;5.07;2.80;;;14.80;1.00;;;;;;5071434;28;20195;-60
2021/03/30 00:56:17;;;;;;;3.40;2.40;;;14.80;1.00;;;;;;5073955;28;20199;-59
2021/03/30 00:58:44;;;;;;;5.47;3.20;;;14.70;1.00;;;;;;5075488;28;20198;-58
2021/03/30 01:01:10;;;;;;;5.50;2.40;;;14.60;1.00;;;;;;5074623;28;20636;-61
2021/03/30 01:03:35;;;;;;;6.03;2.90;;;14.70;1.00;;;;;;5073017;28;20472;-60
2021/03/30 01:06:01;;;;;;;10.10;3.50;;;14.40;1.00;;;;;;5074157;28;20184;-60
2021/03/30 01:08:52;;;;;;;7.57;3.23;;;14.40;1.00;;;;;;5073089;28;20191;-61
2021/03/30 01:11:33;;;;;;;6.87;4.10;;;14.30;1.00;;;;;;5073511;28;20237;-60
2021/03/30 01:14:36;;;;;;;9.00;3.60;;;14.20;1.00;;;;;;5073887;28;20437;-61
2021/03/30 01:17:07;;;;;;;8.80;3.40;;;13.90;1.00;;;;;;5073520;28;20448;-59
2021/03/30 01:20:14;;;;;;;8.27;3.80;;;14.00;1.00;;;;;;5073212;28;20437;-61
2021/03/30 01:22:55;;;;;;;5.33;3.30;;;13.70;1.00;;;;;;5072902;28;20464;-60
2021/03/30 01:25:22;;;;;;;8.83;3.47;;;13.60;1.00;;;;;;5072668;28;20476;-60
2021/03/30 01:28:13;;;;;;;7.00;3.40;;;13.40;1.00;;;;;;5072555;28;20501;-61
2021/03/30 01:30:39;;;;;;;4.50;3.23;;;13.30;1.00;;;;;;5074087;28;20444;-61
2021/03/30 01:33:11;;;;;;;5.20;2.70;;;13.00;1.00;;;;;;5074841;28;20494;-60
2021/03/30 01:35:38;;;;;;;7.83;3.10;;;12.80;1.00;;;;;;5072787;28;20179;-59
2021/03/30 01:38:06;;;;;;;3.73;3.00;;;12.60;1.00;;;;;;5073067;28;20449;-61
2021/03/30 01:40:34;;;;;;;5.40;3.30;;;12.50;1.00;;;;;;5074477;28;20901;-61
2021/03/30 01:43:06;;;;;;;5.20;2.90;;;12.50;1.00;;;;;;5074146;28;20876;-61
2021/03/30 01:45:32;;;;;;;7.27;4.30;;;12.30;1.00;;;;;;5074209;28;20476;-60
2021/03/30 01:47:59;;;;;;;6.27;3.20;;;12.30;1.00;;;;;;5074038;28;20938;-61
2021/03/30 01:50:26;;;;;;;4.33;2.77;;;12.20;1.00;;;;;;5071669;28;20440;-61
2021/03/30 01:52:54;;;;;;;6.13;3.53;;;12.10;1.00;;;;;;5072239;28;20521;-60
2021/03/30 01:55:21;;;;;;;8.63;3.67;;;12.00;1.00;;;;;;5071412;28;20450;-60
2021/03/30 01:57:52;;;;;;;5.30;3.37;;;12.00;1.00;;;;;;5073234;28;20461;-61
2021/03/30 02:00:24;;;;;;;5.50;3.20;;;11.90;1.00;;;;;;5071196;28;20503;-60
2021/03/30 02:02:49;;;;;;;7.33;3.93;;;11.80;1.00;;;;;;5073874;28;20459;-60
2021/03/30 02:05:20;;;;;;;5.83;3.43;;;11.70;1.00;;;;;;5074206;28;20464;-60
2021/03/30 02:07:50;;;;;;;3.93;3.40;;;11.70;1.00;;;;;;5074146;28;20214;-61
2021/03/30 02:10:22;;;;;;;7.00;3.07;;;11.70;1.00;;;;;;5071778;28;20437;-60
2021/03/30 02:12:47;;;;;;;5.00;3.73;;;11.60;1.00;;;;;;5070880;28;21011;-59
2021/03/30 02:15:16;;;;;;;5.87;3.60;;;11.50;1.00;;;;;;5071692;28;20445;-61
2021/03/30 02:18:00;;;;;;;5.27;4.43;;;11.50;1.00;;;;;;5071544;28;20194;-61
2021/03/30 02:20:36;;;;;;;4.13;3.63;;;11.50;1.00;;;;;;5071544;28;20855;-61
2021/03/30 02:23:07;;;;;;;3.93;3.53;;;11.40;1.00;;;;;;5072213;28;20498;-62
2021/03/30 02:25:34;;;;;;;8.40;3.53;;;11.40;1.00;;;;;;5071824;28;21292;-62
2021/03/30 02:28:06;;;;;;;4.30;3.50;;;11.40;1.00;;;;;;5073950;28;20846;-60
2021/03/30 02:30:36;;;;;;;7.83;3.93;;;11.30;1.00;;;;;;5071813;28;20465;-59
2021/03/30 02:33:04;;;;;;;4.60;3.70;;;11.40;1.00;;;;;;5072084;28;20862;-60
2021/03/30 02:35:30;;;;;;;6.10;3.70;;;11.30;1.00;;;;;;5071846;28;20444;-59
2021/03/30 02:37:57;;;;;;;6.03;3.80;;;11.30;1.00;;;;;;5070555;28;20447;-58
2021/03/30 02:40:23;;;;;;;6.93;4.50;;;11.40;1.00;;;;;;5069247;28;20453;-60
2021/03/30 02:42:51;;;;;;;10.40;4.00;;;11.30;1.00;;;;;;5071963;28;20459;-60
2021/03/30 02:45:22;;;;;;;5.03;3.63;;;11.30;1.00;;;;;;5068173;28;20892;-60
2021/03/30 02:47:49;;;;;;;7.67;3.97;;;11.20;1.00;;;;;;5068700;28;20784;-60
2021/03/30 02:50:16;;;;;;;5.23;3.53;;;11.30;1.00;;;;;;5081911;28;20435;-60
2021/03/30 02:52:42;;;;;;;8.17;4.80;;;11.30;1.00;;;;;;5072988;28;20929;-59
2021/03/30 02:55:09;;;;;;;7.33;3.97;;;11.30;1.00;;;;;;5071544;28;20952;-60
2021/03/30 02:57:35;;;;;;;7.83;3.93;;;11.20;1.00;;;;;;5070836;28;20784;-61
2021/03/30 03:00:01;;;;;;;5.93;3.93;;;11.20;1.00;;;;;;5071674;28;20448;-60
2021/03/30 03:02:27;;;;;;;5.60;4.13;;;11.20;1.00;;;;;;5068069;28;20933;-60
2021/03/30 03:04:53;;;;;;;4.97;3.90;;;11.20;1.00;;;;;;5070039;28;20204;-59
2021/03/30 03:07:19;;;;;;;4.90;3.60;;;11.20;1.00;;;;;;5077965;28;20444;-60
2021/03/30 03:09:46;;;;;;;5.60;3.90;;;11.20;1.00;;;;;;5091133;28;20457;-60
2021/03/30 03:12:12;;;;;;;4.20;3.80;;;11.20;1.00;;;;;;5091028;28;20519;-60
2021/03/30 03:14:41;;;;;;;5.77;4.13;;;11.20;1.00;;;;;;5079702;28;20456;-60
2021/03/30 03:17:08;;;;;;;6.33;4.40;;;11.10;1.00;;;;;;5070956;28;20795;-61
2021/03/30 03:19:35;;;;;;;6.17;4.13;;;11.00;1.00;;;;;;5079877;28;20468;-60
2021/03/30 03:22:03;;;;;;;5.33;3.60;;;11.00;1.00;;;;;;5071065;28;20437;-59
2021/03/30 03:24:29;;;;;;;7.97;3.90;;;11.00;1.00;;;;;;5069775;28;20487;-60
2021/03/30 03:26:55;;;;;;;8.30;4.00;;;10.90;1.00;;;;;;5070929;28;20926;-60
2021/03/30 03:29:21;;;;;;;5.80;3.80;;;10.90;1.00;;;;;;5072889;28;20441;-59
2021/03/30 03:31:48;;;;;;;6.30;3.83;;;10.70;1.00;;;;;;5067472;28;20502;-60
2021/03/30 03:34:15;;;;;;;11.27;4.20;;;10.70;1.00;;;;;;5070244;28;20186;-60
2021/03/30 03:36:43;;;;;;;5.60;3.70;;;10.70;1.00;;;;;;5070587;28;20479;-60
2021/03/30 03:39:11;;;;;;;7.47;4.30;;;10.90;1.00;;;;;;5069079;28;20437;-60
2021/03/30 03:41:37;;;;;;;5.73;3.40;;;10.70;1.00;;;;;;5070035;28;20501;-60
2021/03/30 03:44:04;;;;;;;4.80;3.47;;;10.70;1.00;;;;;;5070052;28;20468;-61
2021/03/30 03:46:30;;;;;;;4.93;3.67;;;10.70;1.00;;;;;;5068573;28;20535;-60
2021/03/30 03:48:56;;;;;;;7.40;3.67;;;10.70;1.00;;;;;;5069685;28;20526;-60
2021/03/30 03:51:23;;;;;;;6.37;4.10;;;10.60;1.00;;;;;;5064427;28;20650;-59
2021/03/30 03:53:52;;;;;;;6.03;3.80;;;12.10;1.00;;;;;;5068170;28;20448;-60
2021/03/30 03:56:28;;;;;;;11.40;4.50;;;10.60;1.00;;;;;;5067910;28;20815;-59
2021/03/30 03:58:59;;;;;;;7.80;4.77;;;10.70;1.00;;;;;;5067448;28;20861;-60
2021/03/30 04:01:49;;;;;;;7.30;3.97;;;10.60;1.00;;;;;;5069385;28;20849;-61
2021/03/30 04:04:33;;;;;;;4.77;3.70;;;10.50;1.00;;;;;;5062790;28;20466;-58
2021/03/30 04:07:02;;;;;;;6.60;3.57;;;10.50;1.00;;;;;;5071812;28;20440;-57
2021/03/30 04:09:31;;;;;;;10.87;4.37;;;10.30;1.00;;;;;;5084083;28;20481;-58
2021/03/30 04:11:59;;;;;;;4.70;4.00;;;10.30;1.00;;;;;;5069276;28;20443;-57
2021/03/30 04:14:25;;;;;;;6.17;3.93;;;10.30;1.00;;;;;;5070332;28;20485;-57
2021/03/30 04:16:51;;;;;;;7.30;4.40;;;10.30;1.00;;;;;;5070181;28;20433;-55
2021/03/30 04:19:16;;;;;;;7.30;3.90;;;12.10;1.00;;;;;;5070326;28;20965;-56
2021/03/30 04:21:43;;;;;;;15.33;4.40;;;10.20;1.00;;;;;;5080233;28;20254;-57
2021/03/30 04:24:09;;;;;;;5.10;3.93;;;10.20;1.00;;;;;;5073742;28;20210;-57
2021/03/30 04:26:36;;;;;;;5.77;4.27;;;10.10;1.00;;;;;;5070420;28;20440;-57
2021/03/30 04:29:03;;;;;;;12.33;4.33;;;10.10;1.00;;;;;;5078425;28;20440;-57
2021/03/30 04:31:29;;;;;;;13.50;5.20;;;10.10;1.00;;;;;;5069373;28;20451;-58
2021/03/30 04:33:54;;;;;;;5.60;4.60;;;10.00;1.00;;;;;;5072543;28;20439;-57
2021/03/30 04:36:20;;;;;;;4.83;4.00;;;10.10;1.00;;;;;;5070030;28;20183;-57
2021/03/30 04:38:45;;;;;;;6.10;4.43;;;10.10;1.00;;;;;;5070052;28;20187;-57
2021/03/30 04:41:11;;;;;;;9.17;5.07;;;10.00;1.00;;;;;;5076820;28;20273;-57
2021/03/30 04:43:37;;;;;;;5.93;4.10;;;10.00;1.00;;;;;;5069406;28;20184;-56
2021/03/30 04:46:02;;;;;;;4.40;4.07;;;9.90;1.00;;;;;;5069871;28;20186;-57
2021/03/30 04:48:28;;;;;;;7.50;4.77;;;10.10;1.00;;;;;;5074316;28;20670;-56
2021/03/30 04:50:54;;;;;;;8.80;4.60;;;10.00;1.00;;;;;;5069236;28;20192;-56
2021/03/30 04:53:20;;;;;;;6.67;4.40;;;10.00;1.00;;;;;;5069962;28;20192;-57
2021/03/30 04:55:46;;;;;;;9.10;4.80;;;10.00;1.00;;;;;;5069231;28;20489;-57
2021/03/30 04:58:11;;;;;;;11.73;4.80;;;10.00;1.00;;;;;;5069918;28;20533;-55
2021/03/30 05:00:37;;;;;;;7.10;3.80;;;9.90;1.00;;;;;;5077747;28;20189;-56
2021/03/30 05:03:02;;;;;;;5.97;4.73;;;9.90;1.00;;;;;;5072629;28;20251;-58
2021/03/30 05:05:28;;;;;;;10.20;4.50;;;10.00;1.00;;;;;;5068609;28;20254;-58
2021/03/30 05:07:53;;;;;;;12.97;4.80;;;10.00;1.00;;;;;;5070121;28;20190;-58
2021/03/30 05:10:20;;;;;;;6.40;5.03;;;10.00;1.00;;;;;;5068771;28;20186;-58
2021/03/30 05:12:45;;;;;;;12.87;4.93;;;9.90;1.00;;;;;;5068949;28;20651;-59
2021/03/30 05:15:11;;;;;;;7.13;4.93;;;9.90;1.00;;;;;;5076683;28;20453;-58
2021/03/30 05:17:36;;;;;;;9.80;4.30;;;10.00;1.00;;;;;;5071401;28;20194;-58
2021/03/30 05:20:06;;;;;;;10.67;4.57;;;10.00;1.00;;;;;;5068331;28;20439;-58
2021/03/30 05:22:32;;;;;;;8.20;4.53;;;10.10;1.00;;;;;;5069520;28;20197;-59
2021/03/30 05:25:00;;;;;;;6.97;4.73;;;10.20;1.00;;;;;;5082952;28;20475;-57
2021/03/30 05:27:25;;;;;;;6.23;4.80;;;10.20;1.00;;;;;;5066620;28;20480;-57
2021/03/30 05:29:51;;;;;;;9.93;4.80;;;10.10;1.00;;;;;;5078552;28;20436;-58
2021/03/30 05:32:17;;;;;;;13.83;4.43;;;10.10;1.00;;;;;;5069382;28;20691;-57
2021/03/30 05:34:46;;;;;;;7.07;4.57;;;10.10;1.00;;;;;;5069389;28;20214;-58
2021/03/30 05:37:11;;;;;;;8.07;4.30;;;10.20;1.00;;;;;;5069156;28;20974;-57
2021/03/30 05:39:37;;;;;;;11.50;5.40;;;10.20;1.00;;;;;;5073065;28;20443;-59
2021/03/30 05:42:03;;;;;;;5.90;4.63;;;10.20;1.00;;;;;;5071254;28;20190;-58
2021/03/30 05:44:29;;;;;;;9.13;5.13;;;10.20;1.00;;;;;;5072629;28;20224;-58
2021/03/30 05:49:40;;;;;;;10.47;5.10;;;10.10;1.00;;;;;;5072977;28;20949;-58
2021/03/30 05:52:37;;;;;;;9.23;4.70;;;10.10;1.00;;;;;;5072689;28;20840;-57
2021/03/30 05:55:01;;;;;;;8.70;5.87;;;10.20;1.00;;;;;;5074532;28;20505;-60
2021/03/30 05:57:30;;;;;;;10.20;5.40;;;10.30;1.00;;;;;;5082298;28;20479;-58
2021/03/30 05:59:57;;;;;;;8.87;5.40;;;10.40;1.00;;;;;;5075053;28;20961;-57
2021/03/30 06:02:47;;;;;;;8.37;4.93;;;10.50;1.00;;;;;;5073961;28;20645;-58
2021/03/30 06:05:15;;;;;;;7.10;5.90;;;10.40;1.00;;;;;;5070818;28;20511;-58
2021/03/30 06:07:40;;;;;;;6.10;4.83;;;10.50;1.00;;;;;;5072562;28;20480;-59
2021/03/30 06:10:15;;;;;;;5.30;4.57;;;10.50;1.00;;;;;;5075409;28;20483;-57
2021/03/30 06:12:42;;;;;;;7.10;4.47;;;10.60;1.00;;;;;;5067232;28;20709;-58
2021/03/30 06:15:09;;;;;;;11.40;4.63;;;10.60;1.00;;;;;;5067425;28;20492;-59
2021/03/30 06:17:48;;;;;;;7.43;4.63;;;10.60;1.00;;;;;;5073687;28;20473;-58
2021/03/30 06:20:24;;;;;;;8.30;5.10;;;10.60;1.00;;;;;;5087914;28;20444;-58
2021/03/30 06:22:52;;;;;;;8.80;5.77;;;10.70;1.00;;;;;;5072127;28;20458;-57
2021/03/30 06:25:55;;;;;;;7.27;5.20;;;10.70;1.00;;;;;;5070149;28;20522;-60
2021/03/30 06:28:26;;;;;;;13.87;5.77;;;10.80;1.00;;;;;;5011556;28;20458;-58
2021/03/30 06:31:13;;;;;;;7.57;5.03;;;10.80;1.00;;;;;;5065788;28;20536;-56
2021/03/30 06:33:56;;;;;;;7.40;5.40;;;10.90;1.00;;;;;;5071543;28;20440;-58
2021/03/30 06:36:32;;;;;;;7.27;5.07;;;11.00;1.00;;;;;;5071463;28;20464;-58
2021/03/30 06:39:02;;;;;;;10.47;5.77;;;11.10;1.00;;;;;;5071309;28;20444;-58
2021/03/30 06:41:33;;;;;;;11.67;5.57;;;11.20;1.00;;;;;;5069536;28;20489;-58
2021/03/30 06:46:59;;;;;;;10.20;5.50;;;11.40;1.00;;;;;;5072009;28;20482;-57
2021/03/30 06:49:28;;;;;;;11.57;6.33;;;11.50;1.00;;;;;;5075277;28;20542;-58
2021/03/30 06:51:55;;;;;;;8.87;5.20;;;11.60;1.00;;;;;;5078961;28;20934;-57
2021/03/30 06:54:20;;;;;;;9.57;5.60;;;11.80;1.00;;;;;;5080425;28;20547;-57
2021/03/30 06:56:48;;;;;;;8.33;5.67;;;12.00;1.00;;;;;;5071444;28;20564;-58
2021/03/30 06:59:14;;;;;;;8.53;5.30;;;12.10;1.00;;;;;;5074629;28;20187;-58
2021/03/30 07:01:41;;;;;;;10.97;5.10;;;12.20;1.00;;;;;;5074045;28;20433;-57
2021/03/30 07:04:07;;;;;;;9.87;5.40;;;12.30;1.00;;;;;;5072931;28;20766;-57
2021/03/30 07:06:35;;;;;;;10.07;6.10;;;12.50;1.00;;;;;;5090585;28;20541;-57
2021/03/30 07:09:01;;;;;;;10.93;5.90;;;12.70;1.00;;;;;;5090391;28;20937;-57
2021/03/30 07:11:27;;;;;;;8.83;5.50;;;12.90;1.00;;;;;;5074980;28;20897;-57
2021/03/30 07:13:53;;;;;;;11.57;6.37;;;12.30;1.00;;;;;;5082231;28;20428;-57
2021/03/30 07:16:25;;;;;;;9.43;5.37;;;13.10;1.00;;;;;;5074546;28;20961;-57
2021/03/30 07:18:54;;;;;;;12.73;6.10;;;13.20;1.00;;;;;;5075943;28;20198;-57
2021/03/30 07:21:31;;;;;;;11.27;6.23;;;13.40;1.00;;;;;;5075880;28;20448;-58
2021/03/30 07:24:02;;;;;;;37.37;9.30;;;13.50;1.00;;;;;;5068192;28;20530;-61
2021/03/30 07:26:49;;;;;;;57.10;12.00;;;13.70;1.00;;;;;;5079448;28;20986;-57
2021/03/30 07:29:38;;;;;;;16.30;6.20;;;13.80;1.00;;;;;;5071058;28;20437;-57
2021/03/30 07:32:07;;;;;;;17.90;6.90;;;14.00;1.00;;;;;;5078624;28;20436;-57
2021/03/30 07:34:39;;;;;;;7.90;6.40;;;14.20;1.00;;;;;;5083941;28;20441;-57
2021/03/30 07:37:08;;;;;;;11.57;5.50;;;16.00;1.00;;;;;;5073866;28;21018;-57
2021/03/30 07:39:39;;;;;;;8.57;5.67;;;14.40;1.00;;;;;;5078566;28;20446;-57
2021/03/30 07:42:05;;;;;;;13.70;6.13;;;14.70;1.00;;;;;;5071837;28;20525;-57
2021/03/30 07:44:31;;;;;;;10.77;5.80;;;14.80;1.00;;;;;;5089142;28;20476;-57
2021/03/30 07:46:57;;;;;;;11.20;5.67;;;15.00;1.00;;;;;;5084347;28;20445;-57
2021/03/30 07:49:28;;;;;;;11.53;6.30;;;15.20;1.00;;;;;;5076318;28;20950;-57
2021/03/30 07:51:53;;;;;;;11.60;6.57;;;15.00;1.00;;;;;;5076011;28;20431;-58
2021/03/30 07:54:19;;;;;;;12.37;6.50;;;15.30;1.00;;;;;;5068517;28;20445;-59
2021/03/30 07:56:44;;;;;;;7.13;5.70;;;15.40;1.00;;;;;;5069437;28;20556;-57
2021/03/30 07:59:46;;;;;;;8.40;5.70;;;15.60;1.00;;;;;;5069990;28;20206;-57
2021/03/30 08:02:24;;;;;;;12.33;6.63;;;15.80;1.00;;;;;;5070581;28;20175;-57
2021/03/30 08:05:05;;;;;;;8.27;5.80;;;16.00;1.00;;;;;;5072642;28;20475;-57
2021/03/30 08:07:51;;;;;;;9.07;6.40;;;16.00;1.00;;;;;;5069035;28;20439;-58
2021/03/30 08:10:44;;;;;;;7.73;5.50;;;16.30;1.00;;;;;;5077696;28;20437;-58
2021/03/30 08:13:33;;;;;;;10.40;5.67;;;16.50;1.00;;;;;;5064443;28;20958;-57
2021/03/30 08:16:01;;;;;;;8.10;5.37;;;16.80;1.00;;;;;;5069988;28;20985;-58
2021/03/30 08:18:30;;;;;;;12.27;6.20;;;17.00;1.00;;;;;;5073476;28;20556;-57
2021/03/30 08:21:08;;;;;;;8.70;6.00;;;17.20;1.00;;;;;;5079798;28;20471;-58
2021/03/30 08:23:52;;;;;;;11.17;6.30;;;17.40;1.00;;;;;;5090729;28;20949;-58
2021/03/30 08:26:17;;;;;;;11.40;6.60;;;17.60;1.00;;;;;;5087081;28;20483;-58
2021/03/30 08:28:55;;;;;;;9.10;5.80;;;17.70;1.00;;;;;;5070249;28;20436;-58
2021/03/30 08:31:24;;;;;;;11.20;5.90;;;17.70;1.00;;;;;;5083283;28;20217;-58
2021/03/30 08:33:51;;;;;;;13.67;6.07;;;17.90;1.00;;;;;;5078653;28;20942;-59
2021/03/30 08:36:32;;;;;;;13.17;7.40;;;18.10;1.00;;;;;;5080947;28;20437;-58
2021/03/30 08:39:09;;;;;;;9.03;6.10;;;18.40;1.00;;;;;;5082660;28;20457;-58
2021/03/30 08:41:50;;;;;;;11.47;6.50;;;18.80;1.00;;;;;;5072889;28;20726;-58
2021/03/30 08:44:37;;;;;;;16.00;7.53;;;18.90;1.00;;;;;;5067931;28;20472;-58
2021/03/30 08:47:03;;;;;;;10.20;7.33;;;19.20;1.00;;;;;;5075624;28;20579;-58
2021/03/30 08:49:38;;;;;;;9.17;6.60;;;19.30;1.00;;;;;;5079950;28;20444;-58
2021/03/30 08:52:15;;;;;;;12.40;6.33;;;19.50;1.00;;;;;;5090372;28;20451;-58
2021/03/30 08:54:54;;;;;;;11.30;6.47;;;19.70;1.00;;;;;;5088692;28;20468;-58
2021/03/30 08:57:27;;;;;;;8.03;6.20;;;19.90;1.00;;;;;;5083187;28;20447;-58
2021/03/30 08:59:53;;;;;;;9.00;6.30;;;19.90;1.00;;;;;;5090076;28;20767;-58
2021/03/30 09:02:24;;;;;;;9.43;6.80;;;19.80;1.00;;;;;;5076316;28;20441;-57
2021/03/30 09:04:50;;;;;;;15.50;7.87;;;19.40;1.00;;;;;;5069987;28;20660;-59
2021/03/30 09:07:16;;;;;;;14.73;7.00;;;19.30;1.00;;;;;;5068490;28;20571;-58
2021/03/30 09:09:42;;;;;;;9.83;7.10;;;19.40;1.00;;;;;;5069406;28;20437;-59
2021/03/30 09:12:16;;;;;;;13.40;6.97;;;19.60;1.00;;;;;;5071445;28;21035;-58
2021/03/30 09:14:45;;;;;;;10.50;6.30;;;19.90;1.00;;;;;;5073646;28;20189;-58
2021/03/30 09:17:12;;;;;;;14.80;7.03;;;20.00;1.00;;;;;;5073517;28;20440;-58
2021/03/30 09:19:45;;;;;;;15.40;7.27;;;20.30;1.00;;;;;;5069704;28;20977;-58
2021/03/30 09:22:22;;;;;;;8.53;6.80;;;20.60;1.00;;;;;;5073253;28;20453;-58
2021/03/30 09:25:09;;;;;;;18.37;8.67;;;20.80;1.00;;;;;;5073021;28;20559;-58
2021/03/30 09:27:37;;;;;;;12.30;7.60;;;21.00;1.00;;;;;;5069166;28;20475;-58
2021/03/30 09:30:08;;;;;;;10.03;7.93;;;21.20;1.00;;;;;;5083465;28;20470;-58
2021/03/30 09:32:35;;;;;;;11.67;8.20;;;20.90;1.00;;;;;;5073168;28;20548;-58
2021/03/30 09:35:13;;;;;;;10.87;8.10;;;21.00;1.00;;;;;;5086656;28;20432;-58
2021/03/30 09:37:44;;;;;;;10.80;7.73;;;20.90;1.00;;;;;;5078966;28;20835;-58
2021/03/30 09:40:14;;;;;;;13.03;8.30;;;20.90;1.00;;;;;;5073122;28;20468;-58
2021/03/30 09:42:41;;;;;;;10.57;8.70;;;20.80;1.00;;;;;;5072086;28;20446;-58
2021/03/30 09:45:13;;;;;;;10.10;7.47;;;20.80;1.00;;;;;;5071623;28;20465;-59
2021/03/30 09:47:40;;;;;;;9.23;8.07;;;21.00;1.00;;;;;;5072007;28;20441;-58
2021/03/30 09:50:07;;;;;;;11.07;8.73;;;20.80;1.00;;;;;;5074409;28;20433;-58
2021/03/30 09:52:36;;;;;;;16.27;9.10;;;20.70;1.00;;;;;;5072852;28;20507;-58
2021/03/30 09:55:03;;;;;;;11.50;8.87;;;21.10;1.00;;;;;;5071224;28;20876;-58
2021/03/30 09:57:31;;;;;;;11.87;8.77;;;21.30;1.00;;;;;;5079902;28;20731;-58
2021/03/30 09:59:57;;;;;;;11.40;9.07;;;21.30;1.00;;;;;;5071182;28;20449;-58
2021/03/30 10:02:29;;;;;;;11.57;8.43;;;21.60;1.00;;;;;;5072706;28;20450;-59
2021/03/30 10:04:58;;;;;;;10.43;8.53;;;21.70;1.00;;;;;;5072661;28;20543;-58
2021/03/30 10:07:34;;;;;;;11.20;7.97;;;21.60;1.00;;;;;;5077519;28;20494;-58
2021/03/30 10:10:08;;;;;;;11.33;8.97;;;21.50;1.00;;;;;;5092588;28;20937;-58
2021/03/30 10:12:56;;;;;;;9.57;8.27;;;21.30;1.00;;;;;;5092744;28;20972;-58
2021/03/30 10:15:33;;;;;;;11.87;8.63;;;21.50;1.00;;;;;;5090175;28;20440;-59
2021/03/30 10:18:00;;;;;;;9.60;7.83;;;21.70;1.00;;;;;;5088899;28;20470;-57
2021/03/30 10:20:26;;;;;;;12.63;9.00;;;21.70;1.00;;;;;;5082479;28;20942;-57
2021/03/30 10:22:53;;;;;;;10.43;8.70;;;21.70;1.00;;;;;;5083130;28;20433;-58
2021/03/30 10:25:21;;;;;;;11.33;7.37;;;21.80;1.00;;;;;;5071815;28;20222;-58
2021/03/30 10:27:53;;;;;;;11.43;8.50;;;22.10;1.00;;;;;;5080280;28;20433;-58
2021/03/30 10:30:33;;;;;;;11.40;8.90;;;22.30;1.00;;;;;;5073923;28;20461;-58
2021/03/30 10:33:03;;;;;;;11.40;8.63;;;22.10;1.00;;;;;;5054177;28;20433;-58
2021/03/30 10:35:29;;;;;;;14.10;8.47;;;22.00;1.00;;;;;;5073710;28;20445;-58
2021/03/30 10:37:56;;;;;;;12.77;8.93;;;21.90;1.00;;;;;;5084207;28;20438;-58
2021/03/30 10:40:29;;;;;;;10.80;9.03;;;21.80;1.00;;;;;;5086457;28;20956;-57
2021/03/30 10:42:54;;;;;;;9.47;8.50;;;22.00;1.00;;;;;;5089659;28;20798;-58
2021/03/30 10:45:28;;;;;;;11.20;8.40;;;22.10;1.00;;;;;;5088732;28;20483;-58
2021/03/30 10:48:00;;;;;;;10.07;9.07;;;22.00;1.00;;;;;;5071274;28;20171;-57
2021/03/30 10:50:25;;;;;;;10.60;8.23;;;21.90;1.00;;;;;;5080238;28;20437;-58
2021/03/30 10:52:51;;;;;;;10.53;8.40;;;22.00;1.00;;;;;;5086146;28;20950;-58
2021/03/30 10:55:18;;;;;;;10.40;8.70;;;22.30;1.00;;;;;;5069936;28;20203;-58
2021/03/30 10:57:48;;;;;;;11.53;8.33;;;22.30;1.00;;;;;;5070263;28;20237;-58
2021/03/30 11:00:16;;;;;;;11.30;8.00;;;22.40;1.00;;;;;;5079394;28;20843;-58
2021/03/30 11:02:42;;;;;;;12.70;8.87;;;22.30;1.00;;;;;;5081794;28;20449;-58
2021/03/30 11:05:09;;;;;;;13.70;9.80;;;22.40;1.00;;;;;;5071596;28;20982;-58
2021/03/30 11:07:34;;;;;;;8.80;7.90;;;22.50;1.00;;;;;;5071083;28;20183;-58
2021/03/30 11:10:01;;;;;;;8.97;8.07;;;22.80;1.00;;;;;;5073023;28;20581;-58
2021/03/30 11:12:27;;;;;;;10.23;8.43;;;22.60;1.00;;;;;;5085417;28;20203;-58
2021/03/30 11:14:52;;;;;;;10.50;7.73;;;22.70;1.00;;;;;;5072415;28;20457;-58
2021/03/30 11:17:18;;;;;;;11.40;8.97;;;22.70;1.00;;;;;;5079804;28;20201;-58
2021/03/30 11:19:43;;;;;;;11.70;8.50;;;22.60;1.00;;;;;;5091316;28;20544;-58
2021/03/30 11:22:10;;;;;;;9.90;8.70;;;22.70;1.00;;;;;;5085822;28;20191;-58
2021/03/30 11:24:40;;;;;;;10.50;8.77;;;22.60;1.00;;;;;;5083618;28;20279;-58
2021/03/30 11:27:07;;;;;;;9.83;8.80;;;22.50;1.00;;;;;;5072276;28;20834;-58
2021/03/30 11:34:33;;;;;;;11.70;8.53;;;22.40;1.00;;;;;;5070229;28;20448;-58
2021/03/30 11:39:37;;;;;;;10.53;8.73;;;22.70;1.00;;;;;;5070771;28;20480;-57
2021/03/30 11:42:04;;;;;;;12.43;9.23;;;22.90;1.00;;;;;;5085231;28;20476;-58
2021/03/30 11:44:29;;;;;;;14.37;9.97;;;22.90;1.00;;;;;;5086718;28;20206;-58
2021/03/30 11:46:55;;;;;;;9.87;8.87;;;22.80;1.00;;;;;;5079142;28;20904;-58
2021/03/30 11:49:20;;;;;;;11.57;10.40;;;22.70;1.00;;;;;;5090938;28;20189;-58
2021/03/30 11:51:46;;;;;;;11.80;9.67;;;22.50;1.00;;;;;;5078214;28;20182;-58
2021/03/30 11:54:11;;;;;;;11.03;9.83;;;22.50;1.00;;;;;;5071527;28;20191;-58
2021/03/30 11:56:37;;;;;;;12.47;9.27;;;22.60;1.00;;;;;;5070977;28;20183;-58
2021/03/30 11:59:03;;;;;;;11.57;10.27;;;22.90;1.00;;;;;;5085937;28;20557;-58
2021/03/30 12:01:28;;;;;;;14.03;9.97;;;23.00;1.00;;;;;;5070780;28;20202;-58
2021/03/30 12:03:54;;;;;;;11.90;10.23;;;22.90;1.00;;;;;;5081497;28;20245;-58
2021/03/30 12:06:19;;;;;;;10.30;9.20;;;23.10;1.00;;;;;;5075832;28;20240;-58
2021/03/30 12:08:45;;;;;;;14.00;9.90;;;23.00;1.00;;;;;;5070307;28;20168;-58
2021/03/30 12:11:10;;;;;;;15.03;10.47;;;22.90;1.00;;;;;;5070204;28;20214;-57
2021/03/30 12:13:36;;;;;;;11.67;8.80;;;22.80;1.00;;;;;;5070099;28;20229;-58
2021/03/30 12:16:01;;;;;;;15.33;9.87;;;23.10;1.00;;;;;;5075581;28;20179;-59
2021/03/30 12:18:28;;;;;;;13.20;10.00;;;23.10;1.00;;;;;;5069705;28;20187;-57
2021/03/30 12:20:53;;;;;;;13.10;9.90;;;23.20;1.00;;;;;;5081911;28;20708;-57
2021/03/30 12:23:19;;;;;;;12.67;10.67;;;23.10;1.00;;;;;;5069938;28;20449;-57
2021/03/30 12:25:45;;;;;;;13.53;10.50;;;23.40;1.00;;;;;;5080133;28;20249;-58
2021/03/30 12:28:10;;;;;;;13.17;10.10;;;23.40;1.00;;;;;;5080319;28;20683;-58
2021/03/30 12:30:36;;;;;;;12.70;9.50;;;23.40;1.00;;;;;;5068814;28;20321;-58
2021/03/30 12:33:02;;;;;;;10.73;8.70;;;23.70;1.00;;;;;;5069786;28;20640;-58
2021/03/30 12:35:27;;;;;;;11.33;9.53;;;23.90;1.00;;;;;;5071129;28;20906;-58
2021/03/30 12:37:53;;;;;;;10.17;9.10;;;23.90;1.00;;;;;;5075497;28;20632;-57
2021/03/30 12:40:19;;;;;;;11.47;9.53;;;23.80;1.00;;;;;;5090233;28;20567;-56
2021/03/30 12:42:44;;;;;;;11.63;10.47;;;23.70;1.00;;;;;;5090282;28;20194;-58
2021/03/30 12:45:10;;;;;;;12.60;11.10;;;23.50;1.00;;;;;;5076276;28;20504;-58
2021/03/30 12:47:37;;;;;;;13.70;9.93;;;23.50;1.00;;;;;;5074112;28;20184;-58
2021/03/30 12:50:03;;;;;;;13.20;10.03;;;23.60;1.00;;;;;;5075847;28;20807;-56
2021/03/30 12:52:29;;;;;;;11.47;9.00;;;23.80;1.00;;;;;;5073074;28;20465;-57
2021/03/30 12:55:03;;;;;;;15.20;9.70;;;23.60;1.00;;;;;;5073766;28;20493;-58
2021/03/30 12:57:29;;;;;;;11.20;9.60;;;23.70;1.00;;;;;;5073981;28;20185;-57
2021/03/30 12:59:54;;;;;;;10.30;8.70;;;23.40;1.00;;;;;;5073926;28;20818;-58
2021/03/30 13:02:20;;;;;;;14.47;9.00;;;23.30;1.00;;;;;;5082249;28;20190;-60
2021/03/30 13:04:45;;;;;;;9.27;8.20;;;23.30;1.00;;;;;;5089310;28;20211;-57
2021/03/30 13:07:11;;;;;;;10.70;7.97;;;23.40;1.00;;;;;;5073408;28;20214;-58
2021/03/30 13:09:39;;;;;;;11.87;7.83;;;23.40;1.00;;;;;;5076261;28;20641;-58
2021/03/30 13:12:05;;;;;;;11.53;8.40;;;23.50;1.00;;;;;;5087572;28;20761;-58
2021/03/30 13:14:30;;;;;;;9.10;8.20;;;23.60;1.00;;;;;;5073485;28;20452;-58
2021/03/30 13:16:56;;;;;;;11.40;8.80;;;23.40;1.00;;;;;;5073579;28;20211;-58